Time;durP1;ratioP1;P1;durP2;ratioP2;P2;SDS_P1;SDS_P2;PMS_P1;PMS_P2;Temp;Humidity;BMP_temperature;BMP_pressure;BME280_temperature;BME280_humidity;BME280_pressure;Samples;Min_cycle;Max_cycle;Signal;HPM_P1;HPM_P2
2023/09/01 00:00:59;;;;;;;2.40;1.40;;;;;;;;;;5143071;27;20376;-67
2023/09/01 00:03:27;;;;;;;3.78;1.30;;;;;;;;;;5142984;27;20227;-69
2023/09/01 00:05:54;;;;;;;3.65;1.35;;;;;;;;;;5142618;27;20088;-70
2023/09/01 00:08:21;;;;;;;3.90;1.50;;;;;;;;;;5142737;27;20074;-70
2023/09/01 00:10:47;;;;;;;2.20;1.35;;;;;;;;;;5142925;27;20110;-67
2023/09/01 00:13:14;;;;;;;4.20;1.60;;;;;;;;;;5142635;27;20115;-67
2023/09/01 00:15:41;;;;;;;4.15;1.40;;;;;;;;;;5142546;27;20051;-67
2023/09/01 00:18:07;;;;;;;2.42;1.08;;;;;;;;;;5142993;27;20346;-67
2023/09/01 00:20:34;;;;;;;2.55;1.10;;;;;;;;;;5142571;27;20050;-66
2023/09/01 00:23:03;;;;;;;2.90;1.20;;;;;;;;;;5142378;27;20043;-67
2023/09/01 00:25:30;;;;;;;2.05;1.15;;;;;;;;;;5142376;27;20119;-67
2023/09/01 00:27:57;;;;;;;4.38;1.23;;;;;;;;;;5142390;27;20043;-66
2023/09/01 00:30:27;;;;;;;3.67;1.20;;;;;;;;;;5142386;27;20043;-68
2023/09/01 00:32:54;;;;;;;2.20;1.25;;;;;;;;;;5142752;27;20099;-66
2023/09/01 00:35:21;;;;;;;3.05;1.10;;;;;;;;;;5142272;27;20418;-67
2023/09/01 00:37:50;;;;;;;3.70;1.13;;;;;;;;;;5142150;27;20106;-66
2023/09/01 00:40:17;;;;;;;2.72;0.90;;;;;;;;;;5142062;27;20055;-67
2023/09/01 00:42:43;;;;;;;2.25;0.95;;;;;;;;;;5142288;27;20043;-66
2023/09/01 00:45:10;;;;;;;2.42;1.30;;;;;;;;;;5142099;27;20339;-66
2023/09/01 00:47:37;;;;;;;3.10;1.00;;;;;;;;;;5142040;27;20047;-67
2023/09/01 00:50:07;;;;;;;2.40;1.00;;;;;;;;;;5142195;27;20074;-67
2023/09/01 00:52:35;;;;;;;5.57;1.27;;;;;;;;;;5141509;27;20378;-67
2023/09/01 00:55:02;;;;;;;2.25;1.10;;;;;;;;;;5142164;27;20163;-67
2023/09/01 00:57:30;;;;;;;2.95;1.25;;;;;;;;;;5141950;27;20047;-67
2023/09/01 00:59:56;;;;;;;3.33;1.10;;;;;;;;;;5142215;27;20070;-67
2023/09/01 01:02:25;;;;;;;1.45;0.90;;;;;;;;;;5142124;27;20047;-66
2023/09/01 01:04:54;;;;;;;2.30;1.10;;;;;;;;;;5142037;27;20043;-70
2023/09/01 01:07:40;;;;;;;2.17;1.10;;;;;;;;;;5142068;27;20110;-68
2023/09/01 01:10:19;;;;;;;5.20;1.20;;;;;;;;;;5141438;27;20382;-67
2023/09/01 01:12:50;;;;;;;5.35;1.10;;;;;;;;;;5141597;27;20051;-66
2023/09/01 01:15:19;;;;;;;1.80;0.95;;;;;;;;;;5141794;27;20047;-66
2023/09/01 01:17:47;;;;;;;3.03;1.15;;;;;;;;;;5141553;27;20058;-66
2023/09/01 01:20:36;;;;;;;2.65;1.20;;;;;;;;;;5141553;27;20261;-66
2023/09/01 01:23:07;;;;;;;1.93;0.97;;;;;;;;;;5141162;27;20286;-66
2023/09/01 01:25:33;;;;;;;2.05;1.00;;;;;;;;;;5141500;27;20380;-66
2023/09/01 01:28:07;;;;;;;1.52;0.90;;;;;;;;;;5141934;27;20071;-67
2023/09/01 01:30:36;;;;;;;3.17;1.00;;;;;;;;;;5141680;27;20223;-66
2023/09/01 01:33:03;;;;;;;6.35;1.25;;;;;;;;;;5141546;27;20095;-66
2023/09/01 01:35:39;;;;;;;3.65;1.00;;;;;;;;;;5141554;27;20047;-66
2023/09/01 01:38:23;;;;;;;2.50;1.00;;;;;;;;;;5140836;27;20106;-66
2023/09/01 01:40:55;;;;;;;1.85;0.98;;;;;;;;;;5141417;27;20114;-67
2023/09/01 01:43:23;;;;;;;2.72;1.17;;;;;;;;;;5141462;28;20352;-66
2023/09/01 01:45:50;;;;;;;2.78;1.10;;;;;;;;;;5141534;28;20075;-66
2023/09/01 01:48:16;;;;;;;2.40;1.05;;;;;;;;;;5141431;28;20043;-68
2023/09/01 01:50:44;;;;;;;1.67;0.93;;;;;;;;;;5141247;28;20442;-66
2023/09/01 01:53:12;;;;;;;5.80;1.17;;;;;;;;;;5140851;28;20047;-66
2023/09/01 01:55:39;;;;;;;2.20;1.23;;;;;;;;;;5141368;28;20077;-67
2023/09/01 01:58:06;;;;;;;2.35;1.15;;;;;;;;;;5141342;28;20043;-66
2023/09/01 02:00:32;;;;;;;3.28;1.20;;;;;;;;;;5141284;28;20261;-71
2023/09/01 02:02:59;;;;;;;1.35;0.82;;;;;;;;;;5141231;27;20051;-66
2023/09/01 02:05:27;;;;;;;2.55;1.10;;;;;;;;;;5141371;28;20043;-67
2023/09/01 02:07:53;;;;;;;3.60;1.30;;;;;;;;;;5140676;28;20106;-68
2023/09/01 02:10:20;;;;;;;4.10;1.17;;;;;;;;;;5141457;28;20065;-67
2023/09/01 02:12:47;;;;;;;1.77;1.10;;;;;;;;;;5141026;28;20043;-66
2023/09/01 02:15:14;;;;;;;3.05;1.23;;;;;;;;;;5140958;28;20426;-66
2023/09/01 02:17:40;;;;;;;2.78;1.20;;;;;;;;;;5141332;28;20049;-67
2023/09/01 02:20:16;;;;;;;3.42;1.25;;;;;;;;;;5140994;27;20049;-67
2023/09/01 02:22:45;;;;;;;2.47;1.23;;;;;;;;;;5143495;27;20390;-67
2023/09/01 02:25:15;;;;;;;2.13;0.85;;;;;;;;;;5145250;27;20053;-67
2023/09/01 02:27:42;;;;;;;1.80;1.05;;;;;;;;;;5144881;27;20118;-67
2023/09/01 02:30:10;;;;;;;2.95;1.25;;;;;;;;;;5144838;27;20043;-69
2023/09/01 02:32:37;;;;;;;2.42;1.17;;;;;;;;;;5144896;27;20050;-67
2023/09/01 02:35:08;;;;;;;2.92;1.02;;;;;;;;;;5145075;27;20039;-68
2023/09/01 02:37:38;;;;;;;2.60;1.10;;;;;;;;;;5144272;27;20110;-68
2023/09/01 02:40:10;;;;;;;3.05;1.20;;;;;;;;;;5144685;27;20104;-66
2023/09/01 02:42:39;;;;;;;5.60;1.30;;;;;;;;;;5144859;27;20106;-66
2023/09/01 02:45:07;;;;;;;3.45;1.40;;;;;;;;;;5144624;27;20088;-67
2023/09/01 02:47:34;;;;;;;2.17;1.10;;;;;;;;;;5144382;27;20335;-66
2023/09/01 02:50:04;;;;;;;4.10;1.10;;;;;;;;;;5144482;27;20043;-67
2023/09/01 02:52:31;;;;;;;5.78;1.30;;;;;;;;;;5143936;27;20088;-66
2023/09/01 02:54:58;;;;;;;3.05;1.25;;;;;;;;;;5144571;27;20324;-68
2023/09/01 02:57:26;;;;;;;2.33;1.10;;;;;;;;;;5144243;27;20111;-67
2023/09/01 02:59:53;;;;;;;1.83;1.15;;;;;;;;;;5144462;27;20289;-67
2023/09/01 03:02:20;;;;;;;2.38;1.10;;;;;;;;;;5144141;27;20048;-66
2023/09/01 03:04:48;;;;;;;3.15;1.30;;;;;;;;;;5144382;27;20110;-67
2023/09/01 03:07:15;;;;;;;1.85;1.00;;;;;;;;;;5144216;27;20043;-66
2023/09/01 03:09:42;;;;;;;2.42;1.10;;;;;;;;;;5143998;27;20080;-66
2023/09/01 03:12:09;;;;;;;1.63;1.10;;;;;;;;;;5144325;27;20058;-66
2023/09/01 03:14:36;;;;;;;2.75;1.23;;;;;;;;;;5144163;27;20057;-67
2023/09/01 03:17:04;;;;;;;2.55;1.10;;;;;;;;;;5144005;27;20243;-67
2023/09/01 03:19:34;;;;;;;1.88;1.15;;;;;;;;;;5144166;27;20118;-66
2023/09/01 03:22:00;;;;;;;3.95;1.00;;;;;;;;;;5143894;27;20213;-66
2023/09/01 03:24:28;;;;;;;2.70;1.20;;;;;;;;;;5143306;27;20043;-67
2023/09/01 03:26:54;;;;;;;1.48;1.00;;;;;;;;;;5143704;27;20053;-67
2023/09/01 03:29:21;;;;;;;2.25;1.15;;;;;;;;;;5143596;27;20353;-66
2023/09/01 03:31:48;;;;;;;2.78;1.08;;;;;;;;;;5143927;27;20043;-67
2023/09/01 03:34:14;;;;;;;2.20;1.40;;;;;;;;;;5143380;27;20051;-68
2023/09/01 03:36:41;;;;;;;2.72;1.38;;;;;;;;;;5143906;27;20062;-67
2023/09/01 03:39:08;;;;;;;3.80;1.30;;;;;;;;;;5142849;27;20062;-68
2023/09/01 03:41:36;;;;;;;2.72;1.20;;;;;;;;;;5143455;27;20280;-66
2023/09/01 03:44:03;;;;;;;2.78;1.10;;;;;;;;;;5143673;27;20043;-66
2023/09/01 03:46:29;;;;;;;2.13;1.17;;;;;;;;;;5143676;27;20120;-67
2023/09/01 03:48:56;;;;;;;2.13;1.20;;;;;;;;;;5143356;27;20341;-68
2023/09/01 03:51:23;;;;;;;6.00;1.10;;;;;;;;;;5143350;27;20311;-66
2023/09/01 03:53:49;;;;;;;1.92;1.00;;;;;;;;;;5142842;27;20051;-66
2023/09/01 03:56:19;;;;;;;3.45;1.23;;;;;;;;;;5143331;27;20076;-66
2023/09/01 03:58:46;;;;;;;1.90;1.02;;;;;;;;;;5143240;27;20106;-66
2023/09/01 04:01:13;;;;;;;1.95;1.15;;;;;;;;;;5143445;27;20050;-67
2023/09/01 04:03:42;;;;;;;4.32;1.20;;;;;;;;;;5143172;27;20047;-68
2023/09/01 04:06:10;;;;;;;3.97;1.17;;;;;;;;;;5143119;27;20051;-67
2023/09/01 04:08:37;;;;;;;1.92;1.10;;;;;;;;;;5142582;27;20074;-66
2023/09/01 04:11:04;;;;;;;1.75;1.20;;;;;;;;;;5142977;27;20096;-66
2023/09/01 04:13:32;;;;;;;1.50;0.93;;;;;;;;;;5142901;27;20044;-67
2023/09/01 04:15:59;;;;;;;1.67;1.08;;;;;;;;;;5142970;27;20050;-66
2023/09/01 04:18:26;;;;;;;2.08;1.10;;;;;;;;;;5142570;27;20110;-66
2023/09/01 04:20:54;;;;;;;4.32;1.13;;;;;;;;;;5142762;27;20043;-67
2023/09/01 04:23:21;;;;;;;2.58;0.95;;;;;;;;;;5142296;27;20212;-66
2023/09/01 04:25:48;;;;;;;2.25;1.20;;;;;;;;;;5142887;27;20043;-66
2023/09/01 04:28:16;;;;;;;5.15;1.30;;;;;;;;;;5142612;27;20130;-66
2023/09/01 04:30:44;;;;;;;2.30;1.20;;;;;;;;;;5142765;27;20070;-66
2023/09/01 04:33:12;;;;;;;3.05;1.27;;;;;;;;;;5142587;27;20051;-67
2023/09/01 04:35:39;;;;;;;2.45;1.20;;;;;;;;;;5142586;27;20042;-66
2023/09/01 04:38:06;;;;;;;1.83;1.00;;;;;;;;;;5141788;27;20043;-66
2023/09/01 04:40:33;;;;;;;2.05;0.95;;;;;;;;;;5142289;27;20051;-67
2023/09/01 04:42:59;;;;;;;3.58;1.20;;;;;;;;;;5142728;27;20058;-67
2023/09/01 04:45:26;;;;;;;1.38;0.98;;;;;;;;;;5141513;27;20050;-66
2023/09/01 04:47:53;;;;;;;2.53;1.13;;;;;;;;;;5142270;27;20075;-67
2023/09/01 04:50:20;;;;;;;2.50;1.23;;;;;;;;;;5142287;27;20106;-66
2023/09/01 04:52:47;;;;;;;3.05;1.00;;;;;;;;;;5141693;27;20258;-66
2023/09/01 04:55:13;;;;;;;2.83;1.10;;;;;;;;;;5142166;27;20104;-66
2023/09/01 04:57:40;;;;;;;2.03;1.05;;;;;;;;;;5142251;27;20107;-67
2023/09/01 05:00:15;;;;;;;2.03;1.02;;;;;;;;;;5141848;27;20043;-67
2023/09/01 05:02:44;;;;;;;2.65;1.30;;;;;;;;;;5141980;27;20082;-69
2023/09/01 05:05:12;;;;;;;3.45;1.13;;;;;;;;;;5141853;27;20054;-66
2023/09/01 05:07:39;;;;;;;3.10;1.08;;;;;;;;;;5141428;27;20043;-67
2023/09/01 05:10:06;;;;;;;2.22;1.05;;;;;;;;;;5141769;27;20050;-67
2023/09/01 05:12:33;;;;;;;2.20;1.08;;;;;;;;;;5141856;27;20054;-67
2023/09/01 05:15:00;;;;;;;2.00;1.05;;;;;;;;;;5141464;27;20386;-66
2023/09/01 05:17:28;;;;;;;3.35;1.25;;;;;;;;;;5141575;27;20106;-69
2023/09/01 05:19:56;;;;;;;7.07;1.42;;;;;;;;;;5141608;27;20094;-67
2023/09/01 05:22:23;;;;;;;2.15;1.20;;;;;;;;;;5141988;27;20055;-67
2023/09/01 05:24:50;;;;;;;2.60;1.15;;;;;;;;;;5141203;27;20043;-68
2023/09/01 05:27:19;;;;;;;2.88;1.20;;;;;;;;;;5141697;27;20043;-67
2023/09/01 05:29:47;;;;;;;4.75;1.50;;;;;;;;;;5141477;27;20050;-67
2023/09/01 05:32:15;;;;;;;2.50;1.42;;;;;;;;;;5141710;27;20077;-67
2023/09/01 05:34:42;;;;;;;2.17;1.20;;;;;;;;;;5141581;27;20109;-67
2023/09/01 05:37:11;;;;;;;2.65;1.15;;;;;;;;;;5141651;27;20043;-67
2023/09/01 05:39:39;;;;;;;2.28;1.10;;;;;;;;;;5141049;27;20199;-67
2023/09/01 05:42:09;;;;;;;4.05;1.50;;;;;;;;;;5141684;27;20049;-67
2023/09/01 05:44:36;;;;;;;2.00;1.20;;;;;;;;;;5141177;28;20283;-67
2023/09/01 05:47:03;;;;;;;2.03;1.20;;;;;;;;;;5141307;28;20047;-67
2023/09/01 05:49:31;;;;;;;3.08;1.10;;;;;;;;;;5141114;28;20384;-67
2023/09/01 05:51:59;;;;;;;2.17;1.15;;;;;;;;;;5141354;28;20401;-67
2023/09/01 05:54:26;;;;;;;1.92;1.20;;;;;;;;;;5140701;27;20062;-68
2023/09/01 05:56:53;;;;;;;3.38;1.20;;;;;;;;;;5144668;27;20228;-67
2023/09/01 05:59:20;;;;;;;2.75;1.10;;;;;;;;;;5145487;27;20327;-67
2023/09/01 06:01:46;;;;;;;2.55;1.30;;;;;;;;;;5145732;27;20050;-67
2023/09/01 06:04:13;;;;;;;4.07;1.50;;;;;;;;;;5145414;27;20086;-67
2023/09/01 06:06:43;;;;;;;2.65;1.20;;;;;;;;;;5145589;27;20047;-67
2023/09/01 06:09:10;;;;;;;2.83;1.20;;;;;;;;;;5144886;27;20338;-67
2023/09/01 06:11:39;;;;;;;3.90;1.48;;;;;;;;;;5127126;27;20043;-67
2023/09/01 06:14:06;;;;;;;3.22;1.30;;;;;;;;;;5145177;27;20323;-71
2023/09/01 06:16:33;;;;;;;2.83;1.20;;;;;;;;;;5145205;27;20074;-67
2023/09/01 06:19:03;;;;;;;1.95;1.10;;;;;;;;;;5145048;27;20208;-67
2023/09/01 06:21:31;;;;;;;2.50;1.05;;;;;;;;;;5145131;27;20295;-67
2023/09/01 06:23:58;;;;;;;5.20;1.40;;;;;;;;;;5144886;27;20051;-68
2023/09/01 06:26:24;;;;;;;4.45;1.35;;;;;;;;;;5144721;27;20043;-67
2023/09/01 06:28:51;;;;;;;5.78;1.65;;;;;;;;;;5145304;27;20055;-67
2023/09/01 06:31:17;;;;;;;4.55;1.58;;;;;;;;;;5144830;27;20261;-67
2023/09/01 06:33:44;;;;;;;2.58;1.30;;;;;;;;;;5144808;27;20089;-68
2023/09/01 06:36:13;;;;;;;3.15;1.30;;;;;;;;;;5144797;27;20050;-67
2023/09/01 06:38:40;;;;;;;4.82;1.38;;;;;;;;;;5144190;27;20087;-67
2023/09/01 06:41:08;;;;;;;2.22;1.20;;;;;;;;;;5144906;27;20047;-67
2023/09/01 06:43:36;;;;;;;3.38;1.20;;;;;;;;;;5144677;27;20043;-67
2023/09/01 06:46:03;;;;;;;3.92;1.10;;;;;;;;;;5144665;27;20111;-68
2023/09/01 06:48:31;;;;;;;3.78;1.40;;;;;;;;;;5144540;27;20464;-67
2023/09/01 06:50:59;;;;;;;3.85;1.25;;;;;;;;;;5144420;27;20043;-68
2023/09/01 06:53:26;;;;;;;3.63;1.30;;;;;;;;;;5125732;27;20341;-67
2023/09/01 06:55:53;;;;;;;4.50;1.42;;;;;;;;;;5144474;27;20050;-68
2023/09/01 06:58:20;;;;;;;3.92;1.13;;;;;;;;;;5126155;27;20049;-67
2023/09/01 07:00:47;;;;;;;6.07;1.52;;;;;;;;;;5144269;27;20049;-67
2023/09/01 07:03:13;;;;;;;2.58;1.38;;;;;;;;;;5126495;27;20043;-67
2023/09/01 07:05:40;;;;;;;2.28;1.08;;;;;;;;;;5144284;27;20054;-68
2023/09/01 07:08:14;;;;;;;6.53;1.50;;;;;;;;;;5143021;27;20051;-67
2023/09/01 07:10:41;;;;;;;4.35;1.40;;;;;;;;;;5144075;27;20043;-67
2023/09/01 07:13:10;;;;;;;3.80;1.60;;;;;;;;;;5144017;27;20049;-68
2023/09/01 07:15:37;;;;;;;4.28;1.38;;;;;;;;;;5143692;27;20046;-71
2023/09/01 07:18:04;;;;;;;5.75;1.50;;;;;;;;;;5143861;27;20044;-71
2023/09/01 07:20:30;;;;;;;4.82;1.40;;;;;;;;;;5143656;27;20043;-72
2023/09/01 07:22:57;;;;;;;5.38;1.52;;;;;;;;;;5144041;27;20043;-69
2023/09/01 07:25:24;;;;;;;3.05;1.15;;;;;;;;;;5143790;27;20043;-70
2023/09/01 07:27:50;;;;;;;3.03;1.17;;;;;;;;;;5144179;27;20082;-69
2023/09/01 07:30:17;;;;;;;3.20;1.20;;;;;;;;;;5143809;27;20053;-68
2023/09/01 07:32:44;;;;;;;4.32;1.25;;;;;;;;;;5143657;27;20488;-74
2023/09/01 07:35:11;;;;;;;3.30;1.30;;;;;;;;;;5143829;27;20110;-70
2023/09/01 07:37:37;;;;;;;2.83;1.20;;;;;;;;;;5140599;27;20043;-70
2023/09/01 07:40:05;;;;;;;6.65;1.55;;;;;;;;;;5131867;27;20047;-72
2023/09/01 07:42:31;;;;;;;2.42;1.10;;;;;;;;;;5136086;27;20043;-76
2023/09/01 07:44:58;;;;;;;2.58;1.17;;;;;;;;;;5123248;28;20044;-68
2023/09/01 07:47:25;;;;;;;3.20;1.25;;;;;;;;;;5135449;27;20331;-70
2023/09/01 07:49:52;;;;;;;3.38;1.20;;;;;;;;;;5143249;27;20043;-68
2023/09/01 07:52:19;;;;;;;2.92;1.20;;;;;;;;;;5143546;27;20114;-68
2023/09/01 07:54:45;;;;;;;3.75;1.00;;;;;;;;;;5139997;27;20366;-69
2023/09/01 07:57:12;;;;;;;5.88;1.40;;;;;;;;;;5122764;28;20398;-74
2023/09/01 07:59:39;;;;;;;2.83;1.02;;;;;;;;;;5122752;28;20043;-75
2023/09/01 08:02:06;;;;;;;3.20;1.10;;;;;;;;;;5122656;28;20395;-71
2023/09/01 08:04:33;;;;;;;4.65;1.30;;;;;;;;;;5130651;27;20049;-71
2023/09/01 08:07:00;;;;;;;1.60;1.00;;;;;;;;;;5143102;27;20347;-72
2023/09/01 08:09:26;;;;;;;2.10;1.20;;;;;;;;;;5142522;27;20230;-70
2023/09/01 08:11:53;;;;;;;2.42;1.00;;;;;;;;;;5139644;27;20371;-67
2023/09/01 08:14:20;;;;;;;2.33;1.00;;;;;;;;;;5122230;28;20048;-67
2023/09/01 08:16:47;;;;;;;1.75;1.00;;;;;;;;;;5122382;28;20075;-68
2023/09/01 08:19:14;;;;;;;3.42;1.00;;;;;;;;;;5121375;28;20099;-71
2023/09/01 08:21:41;;;;;;;2.13;1.00;;;;;;;;;;5106476;27;20061;-68
2023/09/01 08:24:08;;;;;;;4.38;1.10;;;;;;;;;;5133259;27;20046;-68
2023/09/01 08:26:35;;;;;;;2.55;1.13;;;;;;;;;;5132049;27;20081;-68
2023/09/01 08:29:04;;;;;;;2.50;1.20;;;;;;;;;;5121845;28;20055;-68
2023/09/01 08:31:32;;;;;;;5.82;0.88;;;;;;;;;;5138488;27;20051;-68
2023/09/01 08:33:58;;;;;;;2.13;1.08;;;;;;;;;;5142967;27;20054;-68
2023/09/01 08:36:26;;;;;;;3.65;1.20;;;;;;;;;;5142856;27;20260;-69
2023/09/01 08:38:53;;;;;;;4.18;1.60;;;;;;;;;;5135661;27;20115;-68
2023/09/01 08:41:20;;;;;;;2.67;1.08;;;;;;;;;;5121812;28;20336;-68
2023/09/01 08:43:49;;;;;;;3.40;1.10;;;;;;;;;;5121627;28;20043;-67
2023/09/01 08:46:21;;;;;;;2.35;0.90;;;;;;;;;;5136749;27;20220;-67
2023/09/01 08:48:48;;;;;;;4.60;1.20;;;;;;;;;;5123733;27;20111;-67
2023/09/01 08:51:14;;;;;;;1.52;0.82;;;;;;;;;;5142148;27;20381;-67
2023/09/01 08:53:42;;;;;;;3.25;1.00;;;;;;;;;;5141861;27;20058;-67
2023/09/01 08:56:08;;;;;;;3.50;1.25;;;;;;;;;;5141875;27;20335;-67
2023/09/01 08:58:36;;;;;;;3.05;0.95;;;;;;;;;;5142110;27;20412;-69
2023/09/01 09:01:03;;;;;;;3.03;1.17;;;;;;;;;;5142087;27;20042;-67
2023/09/01 09:03:30;;;;;;;1.98;1.02;;;;;;;;;;5142316;27;20043;-67
2023/09/01 09:05:57;;;;;;;1.27;0.80;;;;;;;;;;5140301;27;20082;-67
2023/09/01 09:08:23;;;;;;;2.42;1.00;;;;;;;;;;5140474;27;20050;-67
2023/09/01 09:10:50;;;;;;;2.67;1.02;;;;;;;;;;5129836;27;20047;-68
2023/09/01 09:13:30;;;;;;;4.53;1.10;;;;;;;;;;5130530;27;20230;-67
2023/09/01 09:16:07;;;;;;;2.17;1.10;;;;;;;;;;5130176;27;20074;-67
2023/09/01 09:18:35;;;;;;;2.15;0.82;;;;;;;;;;5129935;27;20070;-67
2023/09/01 09:21:02;;;;;;;1.90;0.90;;;;;;;;;;5129756;27;20047;-67
2023/09/01 09:23:43;;;;;;;5.15;1.00;;;;;;;;;;5130592;27;20051;-67
2023/09/01 09:26:11;;;;;;;1.45;0.80;;;;;;;;;;5091481;27;20059;-67
2023/09/01 09:28:38;;;;;;;1.90;0.80;;;;;;;;;;5131113;27;20043;-67
2023/09/01 09:31:06;;;;;;;1.83;0.70;;;;;;;;;;5131654;27;20039;-67
2023/09/01 09:33:33;;;;;;;2.60;0.77;;;;;;;;;;5138533;27;20371;-67
2023/09/01 09:36:03;;;;;;;2.50;0.77;;;;;;;;;;5105924;27;20059;-68
2023/09/01 09:38:49;;;;;;;2.03;0.60;;;;;;;;;;5039699;28;20044;-67
2023/09/01 09:41:16;;;;;;;2.03;0.70;;;;;;;;;;5127262;27;20044;-73
2023/09/01 09:43:50;;;;;;;3.47;0.90;;;;;;;;;;5111720;28;20265;-68
2023/09/01 09:46:19;;;;;;;1.70;0.70;;;;;;;;;;5132644;28;20053;-68
2023/09/01 09:48:46;;;;;;;1.17;0.63;;;;;;;;;;5140032;28;20074;-67
2023/09/01 09:51:17;;;;;;;1.83;0.80;;;;;;;;;;5126588;28;20082;-68
2023/09/01 09:53:48;;;;;;;2.67;0.80;;;;;;;;;;5135209;28;20054;-68
2023/09/01 09:56:33;;;;;;;;;;;;;;;;;;5137095;27;20408;-68
2023/09/01 09:59:06;;;;;;;1.90;0.80;;;;;;;;;;5140223;28;19916;-71
2023/09/01 10:01:39;;;;;;;1.80;0.80;;;;;;;;;;5122433;27;20051;-71
2023/09/01 10:04:07;;;;;;;1.92;0.80;;;;;;;;;;5118309;28;20344;-69
2023/09/01 10:06:35;;;;;;;1.23;0.70;;;;;;;;;;5119016;28;20262;-74
2023/09/01 10:09:04;;;;;;;1.75;0.82;;;;;;;;;;5118722;28;20050;-68
2023/09/01 10:11:31;;;;;;;0.82;0.50;;;;;;;;;;5118885;28;20085;-68
2023/09/01 10:13:59;;;;;;;3.28;1.00;;;;;;;;;;5116873;28;20054;-68
2023/09/01 10:16:26;;;;;;;1.23;0.60;;;;;;;;;;5117626;28;20247;-68
2023/09/01 10:18:53;;;;;;;2.35;0.80;;;;;;;;;;5117758;28;20126;-68
2023/09/01 10:21:20;;;;;;;2.90;0.90;;;;;;;;;;5118128;28;20359;-70
2023/09/01 10:23:47;;;;;;;1.50;0.70;;;;;;;;;;5118782;28;20090;-78
2023/09/01 10:26:25;;;;;;;1.48;0.73;;;;;;;;;;5119259;28;20051;-70
2023/09/01 10:29:01;;;;;;;2.70;0.73;;;;;;;;;;5118309;28;20349;-73
2023/09/01 10:31:28;;;;;;;2.03;0.98;;;;;;;;;;5119922;28;20055;-69
2023/09/01 10:34:15;;;;;;;1.63;0.70;;;;;;;;;;5119278;28;20040;-69
2023/09/01 10:36:44;;;;;;;3.53;0.73;;;;;;;;;;5119665;28;20066;-70
2023/09/01 10:39:21;;;;;;;1.60;0.73;;;;;;;;;;5135682;28;20047;-78
2023/09/01 10:41:53;;;;;;;1.92;0.80;;;;;;;;;;5140355;27;20320;-71
2023/09/01 10:44:21;;;;;;;1.20;0.60;;;;;;;;;;5144178;27;20070;-69
2023/09/01 10:46:49;;;;;;;1.77;0.90;;;;;;;;;;5144309;27;20299;-69
2023/09/01 10:49:16;;;;;;;2.85;0.75;;;;;;;;;;5139590;27;20099;-71
2023/09/01 10:51:43;;;;;;;1.67;0.85;;;;;;;;;;5138069;27;20047;-71
2023/09/01 10:54:16;;;;;;;;;;;;;;;;;;5138736;27;20057;-68
2023/09/01 10:57:02;;;;;;;1.53;0.77;;;;;;;;;;5144155;27;19915;-69
2023/09/01 10:59:30;;;;;;;1.02;0.70;;;;;;;;;;5119464;28;20043;-71
2023/09/01 11:02:15;;;;;;;2.63;0.70;;;;;;;;;;5115004;28;20074;-70
2023/09/01 11:04:43;;;;;;;1.48;0.68;;;;;;;;;;5120372;28;20043;-69
2023/09/01 11:07:10;;;;;;;1.38;0.60;;;;;;;;;;5122433;28;20424;-75
2023/09/01 11:09:38;;;;;;;1.90;0.70;;;;;;;;;;5119760;28;20043;-73
2023/09/01 11:12:07;;;;;;;3.63;0.82;;;;;;;;;;5123677;28;20102;-71
2023/09/01 11:14:35;;;;;;;2.13;0.80;;;;;;;;;;5123215;28;20262;-70
2023/09/01 11:17:03;;;;;;;1.42;0.70;;;;;;;;;;5118540;28;20503;-71
2023/09/01 11:19:46;;;;;;;1.60;0.63;;;;;;;;;;5117144;28;20044;-68
2023/09/01 11:22:13;;;;;;;3.97;0.90;;;;;;;;;;5118215;28;20050;-71
2023/09/01 11:24:44;;;;;;;2.08;0.90;;;;;;;;;;5113979;28;20051;-71
2023/09/01 11:27:11;;;;;;;1.30;0.70;;;;;;;;;;5116826;28;20046;-81
2023/09/01 11:29:38;;;;;;;2.78;1.00;;;;;;;;;;5115517;28;20044;-71
2023/09/01 11:32:05;;;;;;;1.38;0.70;;;;;;;;;;5115014;28;20047;-71
2023/09/01 11:34:39;;;;;;;2.80;0.90;;;;;;;;;;5122395;28;20077;-70
2023/09/01 11:37:06;;;;;;;2.50;0.80;;;;;;;;;;5123200;28;20050;-72
2023/09/01 11:39:33;;;;;;;0.88;0.70;;;;;;;;;;5120165;28;20052;-73
2023/09/01 11:42:00;;;;;;;1.05;0.63;;;;;;;;;;5120814;28;20048;-72
2023/09/01 11:44:26;;;;;;;2.88;0.90;;;;;;;;;;5121384;28;20040;-78
2023/09/01 11:46:53;;;;;;;1.95;0.85;;;;;;;;;;5122698;28;20044;-70
2023/09/01 11:49:20;;;;;;;2.63;0.98;;;;;;;;;;5122657;28;20058;-71
2023/09/01 11:51:48;;;;;;;1.77;0.80;;;;;;;;;;5122679;28;20043;-73
2023/09/01 11:54:14;;;;;;;2.50;1.05;;;;;;;;;;5122015;28;20043;-73
2023/09/01 11:56:42;;;;;;;2.85;0.70;;;;;;;;;;5120169;28;20118;-70
2023/09/01 11:59:08;;;;;;;1.77;0.85;;;;;;;;;;5122379;28;20050;-78
2023/09/01 12:01:41;;;;;;;2.65;0.70;;;;;;;;;;5122356;28;20070;-70
2023/09/01 12:04:09;;;;;;;1.15;0.80;;;;;;;;;;5120778;28;20039;-71
2023/09/01 12:06:44;;;;;;;2.63;1.02;;;;;;;;;;5121679;28;20078;-74
2023/09/01 12:09:16;;;;;;;1.85;0.73;;;;;;;;;;5121129;28;20044;-75
2023/09/01 12:11:58;;;;;;;1.60;0.80;;;;;;;;;;5121787;28;20040;-71
2023/09/01 12:14:28;;;;;;;1.70;0.80;;;;;;;;;;5120784;28;20291;-73
2023/09/01 12:16:56;;;;;;;1.40;0.80;;;;;;;;;;5120824;28;20054;-71
2023/09/01 12:19:25;;;;;;;1.95;0.77;;;;;;;;;;5119133;28;20073;-69
2023/09/01 12:21:53;;;;;;;2.33;0.70;;;;;;;;;;5121330;28;20043;-71
2023/09/01 12:24:20;;;;;;;1.98;0.90;;;;;;;;;;5120317;28;20047;-72
2023/09/01 12:26:47;;;;;;;2.25;0.80;;;;;;;;;;5122162;28;20114;-69
2023/09/01 12:29:14;;;;;;;3.25;0.82;;;;;;;;;;5121885;28;20043;-69
2023/09/01 12:31:44;;;;;;;1.58;0.80;;;;;;;;;;5120229;28;20039;-68
2023/09/01 12:34:11;;;;;;;1.77;0.90;;;;;;;;;;5103689;28;20383;-74
2023/09/01 12:36:38;;;;;;;1.55;0.90;;;;;;;;;;5121567;28;20048;-69
2023/09/01 12:39:04;;;;;;;1.50;0.88;;;;;;;;;;5119591;28;20062;-71
2023/09/01 12:41:31;;;;;;;1.15;0.80;;;;;;;;;;5120304;28;20039;-71
2023/09/01 12:43:58;;;;;;;2.10;0.73;;;;;;;;;;5118067;28;20050;-69
2023/09/01 12:46:24;;;;;;;1.88;0.90;;;;;;;;;;5117198;28;20075;-73
2023/09/01 12:48:51;;;;;;;1.90;0.93;;;;;;;;;;5099394;28;20118;-68
2023/09/01 12:51:18;;;;;;;1.83;1.10;;;;;;;;;;5136215;27;20110;-70
2023/09/01 12:53:44;;;;;;;1.58;0.90;;;;;;;;;;5129350;27;20047;-74
2023/09/01 12:56:11;;;;;;;1.02;0.70;;;;;;;;;;5131056;27;20053;-68
2023/09/01 12:58:38;;;;;;;3.38;0.90;;;;;;;;;;5128424;27;20043;-71
2023/09/01 13:01:05;;;;;;;1.15;0.80;;;;;;;;;;5130073;27;20044;-73
2023/09/01 13:03:32;;;;;;;2.13;0.93;;;;;;;;;;5127590;27;20394;-69
2023/09/01 13:05:59;;;;;;;2.97;0.85;;;;;;;;;;5130052;27;20050;-70
2023/09/01 13:08:26;;;;;;;2.38;1.00;;;;;;;;;;5134814;27;20084;-72
2023/09/01 13:10:54;;;;;;;1.75;0.75;;;;;;;;;;5130918;27;20061;-70
2023/09/01 13:13:21;;;;;;;1.58;0.85;;;;;;;;;;5139157;27;20075;-68
2023/09/01 13:15:51;;;;;;;1.75;0.80;;;;;;;;;;5137293;27;20381;-74
2023/09/01 13:18:18;;;;;;;2.20;0.95;;;;;;;;;;5136834;27;20349;-69
2023/09/01 13:20:45;;;;;;;2.08;0.90;;;;;;;;;;5140433;27;20043;-71
2023/09/01 13:23:11;;;;;;;1.73;1.00;;;;;;;;;;5137835;27;20047;-70
2023/09/01 13:25:38;;;;;;;1.27;0.90;;;;;;;;;;5119890;27;20079;-75
2023/09/01 13:28:05;;;;;;;1.27;0.88;;;;;;;;;;5120753;27;20236;-71
2023/09/01 13:30:36;;;;;;;2.28;0.98;;;;;;;;;;5138519;27;20057;-69
2023/09/01 13:33:04;;;;;;;2.30;0.88;;;;;;;;;;5139645;27;20043;-77
2023/09/01 13:35:31;;;;;;;1.50;0.80;;;;;;;;;;5139388;27;20351;-77
2023/09/01 13:37:57;;;;;;;1.65;0.90;;;;;;;;;;5132976;27;20044;-77
2023/09/01 13:40:26;;;;;;;2.17;0.90;;;;;;;;;;5129899;27;20108;-74
2023/09/01 13:42:52;;;;;;;1.70;0.88;;;;;;;;;;5132248;27;20080;-69
2023/09/01 13:45:19;;;;;;;1.58;0.90;;;;;;;;;;5140715;27;20065;-70
2023/09/01 13:47:45;;;;;;;3.58;0.80;;;;;;;;;;5140066;28;20114;-71
2023/09/01 13:50:13;;;;;;;3.72;0.80;;;;;;;;;;5140495;28;20088;-70
2023/09/01 13:52:40;;;;;;;3.33;0.90;;;;;;;;;;5140516;28;20043;-70
2023/09/01 13:55:06;;;;;;;1.58;0.90;;;;;;;;;;5140550;28;20042;-72
2023/09/01 13:57:33;;;;;;;3.03;1.00;;;;;;;;;;5141065;27;20047;-78
2023/09/01 14:00:00;;;;;;;1.10;0.70;;;;;;;;;;5141192;28;20086;-72
2023/09/01 14:02:27;;;;;;;3.30;1.00;;;;;;;;;;5140732;27;20043;-72
2023/09/01 14:04:54;;;;;;;2.13;0.90;;;;;;;;;;5122819;28;20043;-72
2023/09/01 14:07:20;;;;;;;2.03;0.90;;;;;;;;;;5140161;28;20088;-70
2023/09/01 14:09:47;;;;;;;1.52;0.80;;;;;;;;;;5141162;28;20057;-70
2023/09/01 14:12:14;;;;;;;5.18;0.98;;;;;;;;;;5140754;28;20277;-69
2023/09/01 14:14:40;;;;;;;2.70;1.10;;;;;;;;;;5138188;28;20043;-69
2023/09/01 14:17:07;;;;;;;1.65;0.80;;;;;;;;;;5142157;27;20111;-69
2023/09/01 14:19:34;;;;;;;3.03;0.90;;;;;;;;;;5144443;27;20208;-70
2023/09/01 14:22:01;;;;;;;1.58;0.88;;;;;;;;;;5144119;27;20327;-68
2023/09/01 14:24:28;;;;;;;1.45;0.95;;;;;;;;;;5144641;27;20043;-70
2023/09/01 14:26:55;;;;;;;1.73;0.88;;;;;;;;;;5144784;27;20106;-73
2023/09/01 14:29:21;;;;;;;1.25;0.88;;;;;;;;;;5144636;27;20347;-69
2023/09/01 14:31:48;;;;;;;2.38;0.80;;;;;;;;;;5144934;27;20047;-70
2023/09/01 14:34:15;;;;;;;3.05;0.98;;;;;;;;;;5145028;27;20047;-70
2023/09/01 14:36:41;;;;;;;1.27;0.82;;;;;;;;;;5143446;27;20043;-70
2023/09/01 14:39:08;;;;;;;3.30;0.90;;;;;;;;;;5144046;27;20101;-69
2023/09/01 14:41:35;;;;;;;2.22;1.00;;;;;;;;;;5144904;27;20055;-70
2023/09/01 14:44:02;;;;;;;2.85;1.00;;;;;;;;;;5144361;27;20269;-70
2023/09/01 14:46:32;;;;;;;2.83;1.08;;;;;;;;;;5144742;27;20047;-71
2023/09/01 14:49:00;;;;;;;2.08;1.00;;;;;;;;;;5144587;27;20115;-71